MDPC

Punta Cana International Airport

Punta Cana, Dominican Republic
TAF MDPC 171000Z 1712/1812 10010KT 9999 FEW018 SCT300
Issued Valid From Valid To
Aug-17 @ 10:00 UTC
(5 hours ago)
Aug-17 @ 12:00 UTC
(3 hours ago)
Aug-18 @ 12:00 UTC
(in 21 hours)
Aug-17 @ 12:00 to Aug-18 @ 12:00
TAF MDPC 171000Z 1712/1812 10010KT 9999 FEW018 SCT300
Wind Visibility Clouds
100° at 10 knots 10,000+ meters
  • Few at 1,800' AGL
  • Scattered at 30,000' AGL
TAF MDPC 171000Z 1712/1812 10010KT 9999 FEW018 SCT300
Issued Aug-17 @ 10:00 UTC
(5 hours ago)
Valid From Aug-17 @ 12:00 UTC
(3 hours ago)
Valid To Aug-18 @ 12:00 UTC
(in 21 hours)
Aug-17 @ 12:00 - Aug-18 @ 12:00
Wind Visibility
100° at 10 knots 10,000+ meters
Clouds
  • Few at 1,800' AGL
  • Scattered at 30,000' AGL